createdAt,value
2023-01-07T00:00:06.244Z,5.68
2023-01-07T00:01:06.870Z,5.72
2023-01-07T00:02:07.827Z,5.72
2023-01-07T00:03:07.310Z,5.75
2023-01-07T00:04:07.402Z,5.76
2023-01-07T00:05:07.659Z,5.79
2023-01-07T00:06:07.856Z,5.81
2023-01-07T00:07:09.589Z,5.82
2023-01-07T00:08:08.424Z,5.82
2023-01-07T00:09:08.945Z,5.82
2023-01-07T00:10:09.000Z,5.82
2023-01-07T00:11:09.243Z,5.85
2023-01-07T00:12:09.489Z,5.89
2023-01-07T00:13:10.266Z,5.89
2023-01-07T00:14:10.067Z,5.90
2023-01-07T00:15:10.307Z,5.93
2023-01-07T00:16:10.721Z,5.93
2023-01-07T00:17:10.949Z,5.93
2023-01-07T00:18:11.176Z,5.93
2023-01-07T00:19:11.538Z,5.93
2023-01-07T00:20:11.752Z,5.93
2023-01-07T00:21:12.034Z,5.93
2023-01-07T00:22:12.287Z,5.91
2023-01-07T00:23:12.508Z,5.90
2023-01-07T00:24:12.767Z,5.90
2023-01-07T00:25:12.992Z,5.90
2023-01-07T00:26:13.236Z,5.89
2023-01-07T00:27:13.469Z,5.89
2023-01-07T00:28:13.736Z,5.89
2023-01-07T00:29:13.990Z,5.86
2023-01-07T00:30:14.456Z,5.86
2023-01-07T00:31:14.596Z,5.85
2023-01-07T00:32:14.797Z,5.83
2023-01-07T00:33:15.112Z,5.82
2023-01-07T00:34:15.440Z,5.82
2023-01-07T00:35:15.775Z,5.79
2023-01-07T00:36:16.222Z,5.76
2023-01-07T00:37:16.461Z,5.72
2023-01-07T00:38:16.711Z,5.72
2023-01-07T00:39:16.970Z,5.67
2023-01-07T00:40:17.211Z,5.67
2023-01-07T00:41:17.485Z,5.63
2023-01-07T00:42:17.774Z,5.58
2023-01-07T00:43:18.042Z,5.58
2023-01-07T00:44:18.282Z,5.57
2023-01-07T00:45:18.553Z,5.53
2023-01-07T00:46:18.865Z,5.49
2023-01-07T00:47:19.084Z,5.48
2023-01-07T00:48:19.346Z,5.46
2023-01-07T00:49:19.660Z,5.51
2023-01-07T00:50:19.907Z,5.51
2023-01-07T00:51:20.180Z,5.53
2023-01-07T00:52:20.431Z,5.53
2023-01-07T00:53:20.744Z,5.56
2023-01-07T00:54:21.010Z,5.57
2023-01-07T00:55:21.269Z,5.58
2023-01-07T00:56:21.536Z,5.61
2023-01-07T00:57:21.770Z,5.60
2023-01-07T00:58:22.015Z,5.61
2023-01-07T00:59:22.243Z,5.63
2023-01-07T01:00:22.498Z,5.64
2023-01-07T01:01:22.848Z,5.65
2023-01-07T01:02:22.973Z,5.65
2023-01-07T01:03:23.240Z,5.67
2023-01-07T01:04:23.476Z,5.65
2023-01-07T01:05:23.718Z,5.63
2023-01-07T01:06:23.954Z,5.61
2023-01-07T01:07:24.181Z,5.60
2023-01-07T01:08:24.549Z,5.56
2023-01-07T01:09:24.810Z,5.53
2023-01-07T01:10:25.048Z,5.49
2023-01-07T01:11:25.297Z,5.48
2023-01-07T01:12:25.559Z,5.46
2023-01-07T01:13:25.837Z,5.42
2023-01-07T01:14:26.067Z,5.43
2023-01-07T01:15:26.298Z,5.40
2023-01-07T01:16:26.699Z,5.38
2023-01-07T01:17:26.928Z,5.35
2023-01-07T01:18:27.182Z,5.35
2023-01-07T01:19:27.441Z,5.31
2023-01-07T01:20:27.755Z,5.31
2023-01-07T01:21:27.987Z,5.30
2023-01-07T01:22:28.277Z,5.30
2023-01-07T01:23:28.508Z,5.27
2023-01-07T01:24:28.741Z,5.25
2023-01-07T01:25:28.996Z,5.22
2023-01-07T01:26:29.249Z,5.21
2023-01-07T01:27:29.529Z,5.24
2023-01-07T01:28:29.823Z,5.24
2023-01-07T01:29:30.068Z,5.22
2023-01-07T01:30:30.326Z,5.20
2023-01-07T01:31:30.664Z,5.21
2023-01-07T01:32:30.899Z,5.18
2023-01-07T01:33:31.228Z,5.15
2023-01-07T01:34:31.449Z,5.15
2023-01-07T01:35:31.691Z,5.12
2023-01-07T01:36:31.960Z,5.09
2023-01-07T01:37:32.247Z,5.06
2023-01-07T01:38:32.497Z,5.03
2023-01-07T01:39:32.745Z,5.02
2023-01-07T01:40:32.986Z,4.99
2023-01-07T01:41:33.275Z,5.02
2023-01-07T01:42:33.512Z,5.03
2023-01-07T01:43:33.778Z,5.02
2023-01-07T01:44:34.033Z,5.03
2023-01-07T01:45:34.273Z,5.03
2023-01-07T01:46:34.706Z,5.02
2023-01-07T01:47:34.809Z,4.99
2023-01-07T01:48:35.053Z,4.99
2023-01-07T01:49:35.298Z,5.00
2023-01-07T01:50:35.589Z,5.00
2023-01-07T01:51:35.928Z,5.02
2023-01-07T01:52:36.142Z,5.02
2023-01-07T01:53:36.396Z,5.02
2023-01-07T01:54:36.644Z,4.99
2023-01-07T01:55:36.905Z,5.00
2023-01-07T01:56:37.166Z,4.97
2023-01-07T01:57:37.409Z,4.97
2023-01-07T01:58:37.655Z,4.97
2023-01-07T01:59:37.910Z,4.99
2023-01-07T02:00:38.252Z,5.00
2023-01-07T02:01:38.779Z,4.97
2023-01-07T02:02:38.853Z,4.97
2023-01-07T02:03:39.104Z,4.97
2023-01-07T02:04:39.375Z,4.97
2023-01-07T02:05:40.532Z,4.99
2023-01-07T02:06:39.935Z,4.96
2023-01-07T02:07:40.146Z,4.94
2023-01-07T02:08:40.433Z,4.97
2023-01-07T02:09:40.651Z,4.97
2023-01-07T02:10:40.903Z,5.00
2023-01-07T02:11:41.139Z,4.99
2023-01-07T02:12:41.364Z,4.96
2023-01-07T02:13:41.589Z,4.97
2023-01-07T02:14:41.829Z,4.96
2023-01-07T02:15:42.059Z,4.94
2023-01-07T02:16:42.306Z,4.92
2023-01-07T02:17:42.580Z,4.94
2023-01-07T02:18:42.816Z,4.94
2023-01-07T02:19:43.045Z,4.94
2023-01-07T02:20:43.304Z,4.94
2023-01-07T02:21:43.549Z,4.97
2023-01-07T02:22:43.819Z,4.97
2023-01-07T02:23:44.071Z,4.97
2023-01-07T02:24:44.322Z,4.99
2023-01-07T02:25:44.570Z,5.00
2023-01-07T02:26:44.803Z,5.00
2023-01-07T02:27:45.075Z,5.00
2023-01-07T02:28:45.319Z,5.03
2023-01-07T02:29:45.592Z,5.04
2023-01-07T02:30:45.838Z,5.06
2023-01-07T02:31:46.236Z,5.04
2023-01-07T02:32:46.422Z,5.09
2023-01-07T02:33:46.691Z,5.13
2023-01-07T02:34:46.962Z,5.17
2023-01-07T02:35:47.242Z,5.18
2023-01-07T02:36:47.509Z,5.20
2023-01-07T02:37:47.752Z,5.24
2023-01-07T02:38:48.001Z,5.24
2023-01-07T02:39:48.254Z,5.25
2023-01-07T02:40:48.540Z,5.25
2023-01-07T02:41:48.802Z,5.30
2023-01-07T02:42:49.072Z,5.25
2023-01-07T02:43:49.341Z,5.24
2023-01-07T02:44:49.642Z,5.22
2023-01-07T02:45:50.052Z,5.24
2023-01-07T02:46:50.340Z,5.25
2023-01-07T02:47:50.570Z,5.25
2023-01-07T02:48:50.883Z,5.25
2023-01-07T02:49:51.112Z,5.25
2023-01-07T02:50:51.422Z,5.24
2023-01-07T02:51:51.646Z,5.28
2023-01-07T02:52:51.905Z,5.27
2023-01-07T02:53:52.153Z,5.28
2023-01-07T02:54:52.384Z,5.28
2023-01-07T02:55:52.672Z,5.27
2023-01-07T02:56:52.895Z,5.25
2023-01-07T02:57:53.147Z,5.27
2023-01-07T02:58:53.402Z,5.28
2023-01-07T02:59:53.625Z,5.30
2023-01-07T03:00:54.065Z,5.30
2023-01-07T03:01:54.345Z,5.33
2023-01-07T03:02:54.425Z,5.35
2023-01-07T03:03:54.820Z,5.39
2023-01-07T03:04:54.994Z,5.43
2023-01-07T03:05:55.285Z,5.45
2023-01-07T03:06:55.715Z,5.48
2023-01-07T03:07:55.845Z,5.48
2023-01-07T03:08:56.081Z,5.51
2023-01-07T03:09:56.327Z,5.53
2023-01-07T03:10:56.592Z,5.54
2023-01-07T03:11:56.847Z,5.53
2023-01-07T03:12:57.085Z,5.53
2023-01-07T03:13:57.334Z,5.54
2023-01-07T03:14:57.589Z,5.54
2023-01-07T03:15:57.863Z,5.56
2023-01-07T03:16:58.141Z,5.58
2023-01-07T03:17:58.371Z,5.60
2023-01-07T03:18:58.653Z,5.58
2023-01-07T03:19:58.892Z,5.58
2023-01-07T03:20:59.162Z,5.57
2023-01-07T03:21:59.390Z,5.58
2023-01-07T03:22:59.658Z,5.57
2023-01-07T03:23:59.948Z,5.57
2023-01-07T03:25:00.207Z,5.57
2023-01-07T03:26:00.428Z,5.57
2023-01-07T03:27:00.678Z,5.57
2023-01-07T03:28:00.898Z,5.57
2023-01-07T03:29:01.171Z,5.54
2023-01-07T03:30:01.398Z,5.53
2023-01-07T03:31:01.697Z,5.51
2023-01-07T03:32:02.001Z,5.48
2023-01-07T03:33:02.279Z,5.48
2023-01-07T03:34:02.633Z,5.45
2023-01-07T03:35:02.843Z,5.42
2023-01-07T03:36:03.099Z,5.42
2023-01-07T03:37:03.359Z,5.39
2023-01-07T03:38:03.583Z,5.36
2023-01-07T03:39:03.819Z,5.33
2023-01-07T03:40:04.081Z,5.35
2023-01-07T03:41:04.374Z,5.35
2023-01-07T03:42:04.642Z,5.33
2023-01-07T03:43:04.874Z,5.36
2023-01-07T03:44:05.092Z,5.36
2023-01-07T03:45:05.450Z,5.33
2023-01-07T03:46:05.825Z,5.35
2023-01-07T03:47:05.961Z,5.33
2023-01-07T03:48:06.205Z,5.35
2023-01-07T03:49:06.455Z,5.38
2023-01-07T03:50:06.671Z,5.40
2023-01-07T03:51:07.041Z,5.43
2023-01-07T03:52:07.285Z,5.43
2023-01-07T03:53:07.646Z,5.45
2023-01-07T03:54:07.883Z,5.45
2023-01-07T03:55:08.142Z,5.43
2023-01-07T03:56:08.400Z,5.45
2023-01-07T03:57:08.645Z,5.46
2023-01-07T03:58:08.945Z,5.48
2023-01-07T03:59:09.194Z,5.48
2023-01-07T04:00:09.468Z,5.48
2023-01-07T04:01:09.856Z,5.46
2023-01-07T04:02:10.141Z,5.43
2023-01-07T04:03:10.279Z,5.40
2023-01-07T04:04:10.549Z,5.35
2023-01-07T04:05:10.785Z,5.33
2023-01-07T04:06:11.168Z,5.31
2023-01-07T04:07:11.398Z,5.27
2023-01-07T04:08:11.635Z,5.27
2023-01-07T04:09:11.886Z,5.25
2023-01-07T04:10:12.171Z,5.24
2023-01-07T04:11:12.397Z,5.22
2023-01-07T04:12:12.649Z,5.21
2023-01-07T04:13:12.881Z,5.22
2023-01-07T04:14:13.127Z,5.20
2023-01-07T04:15:13.403Z,5.21
2023-01-07T04:16:13.724Z,5.20
2023-01-07T04:17:13.941Z,5.15
2023-01-07T04:18:14.219Z,5.13
2023-01-07T04:19:14.461Z,5.10
2023-01-07T04:20:15.491Z,5.09
2023-01-07T04:21:15.061Z,5.12
2023-01-07T04:22:15.374Z,5.13
2023-01-07T04:23:15.605Z,5.10
2023-01-07T04:24:15.834Z,5.10
2023-01-07T04:25:16.079Z,5.09
2023-01-07T04:26:16.341Z,5.10
2023-01-07T04:27:16.572Z,5.10
2023-01-07T04:28:16.857Z,5.13
2023-01-07T04:29:18.398Z,5.12
2023-01-07T04:30:17.450Z,5.12
2023-01-07T04:31:17.691Z,5.13
2023-01-07T04:32:17.970Z,5.12
2023-01-07T04:33:18.229Z,5.12
2023-01-07T04:34:18.455Z,5.12
2023-01-07T04:35:18.816Z,5.12
2023-01-07T04:36:19.079Z,5.09
2023-01-07T04:37:19.322Z,5.09
2023-01-07T04:38:19.602Z,5.10
2023-01-07T04:39:19.822Z,5.09
2023-01-07T04:40:20.208Z,5.07
2023-01-07T04:41:20.494Z,5.10
2023-01-07T04:42:20.792Z,5.12
2023-01-07T04:43:21.128Z,5.15
2023-01-07T04:44:21.354Z,5.17
2023-01-07T04:45:21.589Z,5.15
2023-01-07T04:46:21.943Z,5.13
2023-01-07T04:47:22.190Z,5.12
2023-01-07T04:48:22.451Z,5.10
2023-01-07T04:49:22.703Z,5.07
2023-01-07T04:50:22.972Z,5.04
2023-01-07T04:51:23.216Z,5.02
2023-01-07T04:52:23.476Z,5.00
2023-01-07T04:53:23.749Z,5.00
2023-01-07T04:54:24.012Z,4.99
2023-01-07T04:55:24.246Z,4.97
2023-01-07T04:56:24.533Z,4.96
2023-01-07T04:57:24.789Z,4.94
2023-01-07T04:58:25.070Z,4.96
2023-01-07T04:59:25.354Z,4.94
2023-01-07T05:00:25.603Z,4.91
2023-01-07T05:01:26.015Z,4.89
2023-01-07T05:02:26.158Z,4.88
2023-01-07T05:03:26.422Z,4.88
2023-01-07T05:04:26.788Z,4.88
2023-01-07T05:05:27.005Z,4.88
2023-01-07T05:06:27.292Z,4.85
2023-01-07T05:07:27.595Z,4.85
2023-01-07T05:08:27.856Z,4.86
2023-01-07T05:09:28.113Z,4.84
2023-01-07T05:10:28.368Z,4.84
2023-01-07T05:11:28.630Z,4.84
2023-01-07T05:12:28.867Z,4.84
2023-01-07T05:13:29.120Z,4.86
2023-01-07T05:14:29.387Z,4.86
2023-01-07T05:15:29.639Z,4.89
2023-01-07T05:16:29.916Z,4.92
2023-01-07T05:17:30.152Z,4.94
2023-01-07T05:18:30.386Z,4.96
2023-01-07T05:19:30.644Z,4.94
2023-01-07T05:20:30.888Z,4.96
2023-01-07T05:21:31.124Z,4.97
2023-01-07T05:22:31.342Z,4.97
2023-01-07T05:23:31.590Z,4.96
2023-01-07T05:24:31.867Z,4.94
2023-01-07T05:25:32.155Z,4.92
2023-01-07T05:26:32.438Z,4.91
2023-01-07T05:27:32.659Z,4.89
2023-01-07T05:28:32.923Z,4.89
2023-01-07T05:29:33.152Z,4.88
2023-01-07T05:30:33.492Z,4.85
2023-01-07T05:31:33.716Z,4.80
2023-01-07T05:32:33.982Z,4.77
2023-01-07T05:33:34.260Z,4.72
2023-01-07T05:34:34.544Z,4.70
2023-01-07T05:35:34.788Z,4.70
2023-01-07T05:36:34.990Z,4.66
2023-01-07T05:37:35.323Z,4.63
2023-01-07T05:38:35.679Z,4.63
2023-01-07T05:39:35.964Z,4.60
2023-01-07T05:40:36.282Z,4.55
2023-01-07T05:41:36.543Z,4.58
2023-01-07T05:42:36.785Z,4.55
2023-01-07T05:43:37.015Z,4.55
2023-01-07T05:44:37.266Z,4.58
2023-01-07T05:45:37.709Z,4.55
2023-01-07T05:46:37.836Z,4.54
2023-01-07T05:47:38.144Z,4.50
2023-01-07T05:48:38.426Z,4.47
2023-01-07T05:49:38.780Z,4.50
2023-01-07T05:50:39.006Z,4.50
2023-01-07T05:51:39.307Z,4.50
2023-01-07T05:52:39.537Z,4.50
2023-01-07T05:53:39.803Z,4.51
2023-01-07T05:54:40.104Z,4.55
2023-01-07T05:55:40.381Z,4.60
2023-01-07T05:56:40.605Z,4.65
2023-01-07T05:57:40.964Z,4.70
2023-01-07T05:58:41.224Z,4.78
2023-01-07T05:59:41.446Z,4.88
2023-01-07T06:00:41.687Z,4.91
2023-01-07T06:01:41.947Z,4.96
2023-01-07T06:02:42.204Z,5.02
2023-01-07T06:03:42.523Z,5.07
2023-01-07T06:04:42.846Z,5.06
2023-01-07T06:05:43.107Z,5.06
2023-01-07T06:06:43.367Z,5.06
2023-01-07T06:07:43.712Z,5.03
2023-01-07T06:08:43.987Z,5.03
2023-01-07T06:09:44.288Z,5.00
2023-01-07T06:10:44.525Z,5.02
2023-01-07T06:11:44.837Z,5.02
2023-01-07T06:12:45.105Z,5.03
2023-01-07T06:13:45.349Z,5.02
2023-01-07T06:14:45.638Z,5.03
2023-01-07T06:15:45.911Z,5.03
2023-01-07T06:16:46.197Z,5.03
2023-01-07T06:17:46.448Z,5.03
2023-01-07T06:18:46.712Z,5.04
2023-01-07T06:19:47.023Z,5.06
2023-01-07T06:20:47.251Z,5.10
2023-01-07T06:21:47.480Z,5.10
2023-01-07T06:22:47.717Z,5.13
2023-01-07T06:23:47.997Z,5.17
2023-01-07T06:24:48.240Z,5.17
2023-01-07T06:25:48.528Z,5.21
2023-01-07T06:26:48.785Z,5.22
2023-01-07T06:27:49.031Z,5.22
2023-01-07T06:28:49.281Z,5.25
2023-01-07T06:29:49.518Z,5.28
2023-01-07T06:30:49.825Z,5.30
2023-01-07T06:31:50.070Z,5.31
2023-01-07T06:32:50.359Z,5.33
2023-01-07T06:33:50.592Z,5.31
2023-01-07T06:34:50.871Z,5.33
2023-01-07T06:35:51.154Z,5.33
2023-01-07T06:36:51.392Z,5.35
2023-01-07T06:37:51.666Z,5.35
2023-01-07T06:38:51.962Z,5.35
2023-01-07T06:39:52.221Z,5.36
2023-01-07T06:40:52.481Z,5.38
2023-01-07T06:41:52.854Z,5.39
2023-01-07T06:42:53.050Z,5.40
2023-01-07T06:43:53.436Z,5.43
2023-01-07T06:44:53.665Z,5.43
2023-01-07T06:45:53.973Z,5.45
2023-01-07T06:46:54.256Z,5.46
2023-01-07T06:47:54.517Z,5.49
2023-01-07T06:48:54.822Z,5.51
2023-01-07T06:49:55.150Z,5.51
2023-01-07T06:50:55.470Z,5.54
2023-01-07T06:51:55.694Z,5.57
2023-01-07T06:52:56.003Z,5.57
2023-01-07T06:53:56.379Z,5.58
2023-01-07T06:54:56.690Z,5.58
2023-01-07T06:55:56.966Z,5.58
2023-01-07T06:56:57.225Z,5.58
2023-01-07T06:57:57.596Z,5.60
2023-01-07T06:58:57.785Z,5.58
2023-01-07T06:59:58.132Z,5.60
2023-01-07T07:00:58.363Z,5.61
2023-01-07T07:01:58.772Z,5.63
2023-01-07T07:02:59.114Z,5.63
2023-01-07T07:03:59.261Z,5.65
2023-01-07T07:04:59.520Z,5.65
2023-01-07T07:05:59.819Z,5.65
2023-01-07T07:07:00.113Z,5.65
2023-01-07T07:08:00.433Z,5.65
2023-01-07T07:09:00.744Z,5.67
2023-01-07T07:10:01.056Z,5.71
2023-01-07T07:11:01.312Z,5.71
2023-01-07T07:12:01.610Z,5.71
2023-01-07T07:13:01.876Z,5.68
2023-01-07T07:14:02.152Z,5.71
2023-01-07T07:15:02.456Z,5.71
2023-01-07T07:16:02.824Z,5.72
2023-01-07T07:17:03.113Z,5.71
2023-01-07T07:18:03.400Z,5.74
2023-01-07T07:19:03.703Z,5.75
2023-01-07T07:20:03.950Z,5.78
2023-01-07T07:21:04.212Z,5.78
2023-01-07T07:22:04.879Z,5.79
2023-01-07T07:23:04.773Z,5.81
2023-01-07T07:24:05.091Z,5.82
2023-01-07T07:25:05.359Z,5.82
2023-01-07T07:26:05.680Z,5.82
2023-01-07T07:27:05.997Z,5.82
2023-01-07T07:28:06.283Z,5.82
2023-01-07T07:29:06.561Z,5.82
2023-01-07T07:30:06.868Z,5.82
2023-01-07T07:31:07.145Z,5.83
2023-01-07T07:32:07.431Z,5.83
2023-01-07T07:33:07.766Z,5.86
2023-01-07T07:34:08.035Z,5.85
2023-01-07T07:35:08.300Z,5.89
2023-01-07T07:36:08.584Z,5.89
2023-01-07T07:37:08.867Z,5.86
2023-01-07T07:38:09.216Z,5.89
2023-01-07T07:39:09.456Z,5.89
2023-01-07T07:40:09.754Z,5.89
2023-01-07T07:41:10.029Z,5.90
2023-01-07T07:42:10.339Z,5.90
2023-01-07T07:43:13.007Z,5.91
2023-01-07T07:44:10.903Z,5.93
2023-01-07T07:45:11.273Z,5.94
2023-01-07T07:46:11.444Z,5.96
2023-01-07T07:47:11.716Z,5.94
2023-01-07T07:48:11.997Z,5.97
2023-01-07T07:49:12.270Z,5.96
2023-01-07T07:50:12.514Z,6.00
2023-01-07T07:51:12.777Z,5.99
2023-01-07T07:52:13.015Z,5.99
2023-01-07T07:53:13.265Z,5.99
2023-01-07T07:54:13.534Z,5.99
2023-01-07T07:55:19.852Z,6.00
2023-01-07T07:56:15.143Z,5.99
2023-01-07T07:57:14.447Z,6.01
2023-01-07T07:58:14.689Z,6.01
2023-01-07T07:59:14.925Z,6.00
2023-01-07T08:00:15.270Z,6.01
2023-01-07T08:01:15.586Z,6.04
2023-01-07T08:02:15.793Z,6.03
2023-01-07T08:03:16.064Z,6.04
2023-01-07T08:04:16.337Z,6.04
2023-01-07T08:05:16.626Z,6.03
2023-01-07T08:06:16.953Z,6.04
2023-01-07T08:07:32.416Z,6.06
2023-01-07T08:08:18.598Z,6.06
2023-01-07T08:09:17.787Z,6.08
2023-01-07T08:10:18.089Z,6.09
2023-01-07T08:11:18.536Z,6.11
2023-01-07T08:12:18.730Z,6.11
2023-01-07T08:13:18.900Z,6.14
2023-01-07T08:14:19.169Z,6.17
2023-01-07T08:15:19.508Z,6.17
2023-01-07T08:16:19.835Z,6.15
2023-01-07T08:17:20.076Z,6.19
2023-01-07T08:18:20.409Z,6.19
2023-01-07T08:19:20.608Z,6.22
2023-01-07T08:20:20.921Z,6.27
2023-01-07T08:21:21.242Z,6.30
2023-01-07T08:22:21.544Z,6.30
2023-01-07T08:23:21.871Z,6.34
2023-01-07T08:24:22.450Z,6.36
2023-01-07T08:25:22.391Z,6.38
2023-01-07T08:26:22.660Z,6.41
2023-01-07T08:27:22.950Z,6.44
2023-01-07T08:28:23.298Z,6.48
2023-01-07T08:29:23.969Z,6.51
2023-01-07T08:30:23.808Z,6.54
2023-01-07T08:31:24.161Z,6.58
2023-01-07T08:32:24.477Z,6.59
2023-01-07T08:33:24.663Z,6.62
2023-01-07T08:34:25.545Z,6.64
2023-01-07T08:38:13.273Z,6.77
2023-01-07T08:39:11.283Z,6.79
2023-01-07T08:40:11.124Z,6.84
2023-01-07T08:41:11.177Z,6.85
2023-01-07T08:42:11.498Z,6.87
2023-01-07T08:43:11.869Z,6.91
2023-01-07T08:44:12.097Z,6.92
2023-01-07T08:45:12.272Z,6.92
2023-01-07T08:46:12.554Z,6.94
2023-01-07T08:47:12.887Z,6.98
2023-01-07T08:48:13.203Z,6.98
2023-01-07T08:49:13.463Z,7.02
2023-01-07T08:50:13.863Z,7.02
2023-01-07T08:51:14.016Z,7.02
2023-01-07T08:52:14.324Z,7.06
2023-01-07T08:53:14.802Z,7.06
2023-01-07T08:54:15.161Z,7.09
2023-01-07T08:55:15.272Z,7.10
2023-01-07T08:56:15.529Z,7.09
2023-01-07T08:57:15.921Z,7.12
2023-01-07T08:58:16.124Z,7.12
2023-01-07T08:59:16.632Z,7.15
2023-01-07T09:00:16.764Z,7.16
2023-01-07T09:01:17.178Z,7.17
2023-01-07T09:02:17.626Z,7.20
2023-01-07T09:03:17.561Z,7.21
2023-01-07T09:04:17.866Z,7.23
2023-01-07T09:05:18.157Z,7.25
2023-01-07T09:06:18.482Z,7.25
2023-01-07T09:07:18.820Z,7.27
2023-01-07T09:08:19.115Z,7.28
2023-01-07T09:09:19.518Z,7.30
2023-01-07T09:10:19.777Z,7.31
2023-01-07T09:11:19.984Z,7.32
2023-01-07T09:12:20.163Z,7.34
2023-01-07T09:13:20.467Z,7.34
2023-01-07T09:14:20.900Z,7.35
2023-01-07T09:15:21.038Z,7.37
2023-01-07T09:16:21.326Z,7.40
2023-01-07T09:17:24.092Z,7.40
2023-01-07T09:18:21.830Z,7.42
2023-01-07T09:19:22.149Z,7.42
2023-01-07T09:20:22.438Z,7.45
2023-01-07T09:21:22.971Z,7.43
2023-01-07T09:22:23.016Z,7.45
2023-01-07T09:23:23.341Z,7.46
2023-01-07T09:24:23.660Z,7.45
2023-01-07T09:25:23.958Z,7.48
2023-01-07T09:26:24.322Z,7.48
2023-01-07T09:27:24.653Z,7.49
2023-01-07T09:28:25.058Z,7.50
2023-01-07T09:29:25.230Z,7.53
2023-01-07T09:30:25.607Z,7.55
2023-01-07T09:31:26.088Z,7.58
2023-01-07T09:32:26.009Z,7.60
2023-01-07T09:33:27.125Z,7.61
2023-01-07T09:34:26.616Z,7.63
2023-01-07T09:35:26.925Z,7.63
2023-01-07T09:36:27.949Z,7.67
2023-01-07T09:37:27.564Z,7.67
2023-01-07T09:38:28.464Z,7.68
2023-01-07T09:39:27.971Z,7.68
2023-01-07T09:40:28.263Z,7.68
2023-01-07T09:41:28.570Z,7.71
2023-01-07T09:42:28.885Z,7.74
2023-01-07T09:44:00.127Z,7.77
2023-01-07T09:44:31.151Z,7.79
2023-01-07T09:45:29.749Z,7.77
2023-01-07T09:46:29.990Z,7.80
2023-01-07T09:47:30.265Z,7.77
2023-01-07T09:48:30.631Z,7.77
2023-01-07T09:49:30.884Z,7.77
2023-01-07T09:50:31.066Z,7.77
2023-01-07T09:51:31.397Z,7.79
2023-01-07T09:52:31.698Z,7.79
2023-01-07T09:53:32.009Z,7.79
2023-01-07T09:54:32.251Z,7.80
2023-01-07T09:55:32.504Z,7.82
2023-01-07T09:56:32.796Z,7.85
2023-01-07T09:57:33.093Z,7.86
2023-01-07T09:58:33.339Z,7.87
2023-01-07T09:59:33.655Z,7.87
2023-01-07T10:00:33.925Z,7.89
2023-01-07T10:01:34.222Z,7.89
2023-01-07T10:02:34.640Z,7.92
2023-01-07T10:03:34.753Z,7.93
2023-01-07T10:04:35.053Z,7.93
2023-01-07T10:05:35.351Z,7.95
2023-01-07T10:06:43.604Z,7.98
2023-01-07T10:07:36.882Z,8.01
2023-01-07T10:08:36.104Z,8.05
2023-01-07T10:09:36.406Z,8.07
2023-01-07T10:10:36.670Z,8.10
2023-01-07T10:11:37.682Z,8.12
2023-01-07T10:12:37.187Z,8.12
2023-01-07T10:13:37.470Z,8.15
2023-01-07T10:14:37.907Z,8.15
2023-01-07T10:15:38.033Z,8.16
2023-01-07T10:16:38.316Z,8.16
2023-01-07T10:17:38.543Z,8.16
2023-01-07T10:18:38.825Z,8.18
2023-01-07T10:19:39.113Z,8.16
2023-01-07T10:20:39.380Z,8.16
2023-01-07T10:21:39.660Z,8.18
2023-01-07T10:22:40.025Z,8.22
2023-01-07T10:23:40.177Z,8.20
2023-01-07T10:24:40.469Z,8.23
2023-01-07T10:25:40.771Z,8.22
2023-01-07T10:26:41.143Z,8.22
2023-01-07T10:27:41.417Z,8.22
2023-01-07T10:28:41.715Z,8.19
2023-01-07T10:29:41.966Z,8.20
2023-01-07T10:30:42.255Z,8.22
2023-01-07T10:31:42.698Z,8.22
2023-01-07T10:32:42.850Z,8.22
2023-01-07T10:33:43.140Z,8.22
2023-01-07T10:34:43.417Z,8.22
2023-01-07T10:35:43.695Z,8.25
2023-01-07T10:36:43.974Z,8.28
2023-01-07T10:37:44.276Z,8.30
2023-01-07T10:38:44.560Z,8.30
2023-01-07T10:39:44.828Z,8.33
2023-01-07T10:40:46.080Z,8.34
2023-01-07T10:41:45.475Z,8.34
2023-01-07T10:42:45.791Z,8.36
2023-01-07T10:43:46.086Z,8.34
2023-01-07T10:44:46.400Z,8.36
2023-01-07T10:45:46.809Z,8.37
2023-01-07T10:46:47.030Z,8.40
2023-01-07T10:47:47.224Z,8.47
2023-01-07T10:48:47.591Z,8.50
2023-01-07T10:49:47.798Z,8.55
2023-01-07T10:50:48.138Z,8.56
2023-01-07T10:51:48.370Z,8.56
2023-01-07T10:52:48.582Z,8.58
2023-01-07T10:53:48.923Z,8.59
2023-01-07T10:54:49.274Z,8.61
2023-01-07T10:55:49.492Z,8.62
2023-01-07T10:56:49.840Z,8.61
2023-01-07T10:57:50.059Z,8.59
2023-01-07T10:58:50.398Z,8.62
2023-01-07T10:59:50.740Z,8.63
2023-01-07T11:00:51.115Z,8.66
2023-01-07T11:01:51.480Z,8.68
2023-01-07T11:02:51.666Z,8.68
2023-01-07T11:03:51.915Z,8.71
2023-01-07T11:04:52.163Z,8.73
2023-01-07T11:05:52.480Z,8.74
2023-01-07T11:06:52.754Z,8.76
2023-01-07T11:07:52.996Z,8.77
2023-01-07T11:08:53.244Z,8.77
2023-01-07T11:09:53.502Z,8.79
2023-01-07T11:10:53.804Z,8.79
2023-01-07T11:11:54.046Z,8.79
2023-01-07T11:12:54.310Z,8.80
2023-01-07T11:13:54.552Z,8.83
2023-01-07T11:14:54.812Z,8.84
2023-01-07T11:15:55.101Z,8.86
2023-01-07T11:16:55.656Z,8.89
2023-01-07T11:17:55.641Z,8.91
2023-01-07T11:18:56.068Z,8.92
2023-01-07T11:20:24.872Z,8.91
2023-01-07T11:20:56.729Z,8.95
2023-01-07T11:21:57.529Z,8.96
2023-01-07T11:22:57.188Z,8.98
2023-01-07T11:24:07.362Z,9.01
2023-01-07T11:24:57.770Z,9.02
2023-01-07T11:25:58.336Z,9.02
2023-01-07T11:26:58.372Z,9.04
2023-01-07T11:27:58.715Z,9.02
2023-01-07T11:28:59.053Z,9.02
2023-01-07T11:29:59.356Z,8.99
2023-01-07T11:31:00.340Z,8.99
2023-01-07T11:32:00.015Z,9.01
2023-01-07T11:33:00.364Z,9.01
2023-01-07T11:34:02.865Z,8.99
2023-01-07T11:35:00.963Z,8.99
2023-01-07T11:36:01.405Z,9.01
2023-01-07T11:37:01.605Z,9.04
2023-01-07T11:38:01.801Z,9.04
2023-01-07T11:39:02.086Z,9.11
2023-01-07T11:40:02.356Z,9.10
2023-01-07T11:41:02.646Z,9.11
2023-01-07T11:42:02.937Z,9.14
2023-01-07T11:43:03.247Z,9.17
2023-01-07T11:44:03.577Z,9.20
2023-01-07T11:45:03.850Z,9.24
2023-01-07T11:46:20.276Z,9.23
2023-01-07T11:47:05.390Z,9.26
2023-01-07T11:48:04.766Z,9.28
2023-01-07T11:49:05.028Z,9.32
2023-01-07T11:50:05.311Z,9.32
2023-01-07T11:51:05.617Z,9.33
2023-01-07T11:52:05.939Z,9.36
2023-01-07T11:53:06.198Z,9.38
2023-01-07T11:54:06.529Z,9.38
2023-01-07T11:55:06.669Z,9.39
2023-01-07T11:56:06.958Z,9.40
2023-01-07T11:57:07.233Z,9.42
2023-01-07T11:58:30.109Z,9.43
2023-01-07T11:59:08.882Z,9.42
2023-01-07T12:00:08.231Z,9.43
2023-01-07T12:01:08.598Z,9.40
2023-01-07T12:02:08.916Z,9.39
2023-01-07T12:03:09.101Z,9.39
2023-01-07T12:04:09.433Z,9.38
2023-01-07T12:05:09.682Z,9.38
2023-01-07T12:06:09.995Z,9.39
2023-01-07T12:07:10.330Z,9.46
2023-01-07T12:08:10.613Z,9.47
2023-01-07T12:09:10.917Z,9.48
2023-01-07T12:10:11.263Z,9.50
2023-01-07T12:11:11.652Z,9.54
2023-01-07T12:12:11.858Z,9.57
2023-01-07T12:13:12.078Z,9.58
2023-01-07T12:14:12.284Z,9.58
2023-01-07T12:15:12.607Z,9.60
2023-01-07T12:16:12.969Z,9.58
2023-01-07T12:17:13.237Z,9.60
2023-01-07T12:18:13.597Z,9.60
2023-01-07T12:19:13.772Z,9.60
2023-01-07T12:20:14.142Z,9.60
2023-01-07T12:21:14.359Z,9.60
2023-01-07T12:22:14.737Z,9.58
2023-01-07T12:23:14.902Z,9.58
2023-01-07T12:24:15.253Z,9.56
2023-01-07T12:25:15.437Z,9.51
2023-01-07T12:26:15.784Z,9.51
2023-01-07T12:27:16.056Z,9.50
2023-01-07T12:28:16.353Z,9.50
2023-01-07T12:29:16.627Z,9.48
2023-01-07T12:30:16.999Z,9.48
2023-01-07T12:31:17.258Z,9.47
2023-01-07T12:32:17.430Z,9.47
2023-01-07T12:33:17.807Z,9.48
2023-01-07T12:34:18.131Z,9.48
2023-01-07T12:35:18.562Z,9.48
2023-01-07T12:36:18.770Z,9.48
2023-01-07T12:37:18.926Z,9.48
2023-01-07T12:38:19.246Z,9.48
2023-01-07T12:39:19.622Z,9.48
2023-01-07T12:40:19.846Z,9.48
2023-01-07T12:41:20.229Z,9.47
2023-01-07T12:43:20.572Z,9.47
2023-01-07T12:44:20.909Z,9.47
2023-01-07T12:45:21.254Z,9.48
2023-01-07T12:46:21.474Z,9.50
2023-01-07T12:47:32.379Z,9.51
2023-01-07T12:48:22.983Z,9.53
2023-01-07T12:49:22.234Z,9.54
2023-01-07T12:50:22.636Z,9.51
2023-01-07T12:51:22.808Z,9.56
2023-01-07T12:52:23.183Z,9.58
2023-01-07T12:53:23.560Z,9.58
2023-01-07T12:54:23.857Z,9.58
2023-01-07T12:55:24.156Z,9.64
2023-01-07T12:56:24.432Z,9.65
2023-01-07T12:57:24.711Z,9.68
2023-01-07T12:58:24.998Z,9.68
2023-01-07T12:59:45.909Z,9.71
2023-01-07T13:00:26.620Z,9.72
2023-01-07T13:01:25.923Z,9.74
2023-01-07T13:02:26.278Z,9.75
2023-01-07T13:03:26.416Z,9.76
2023-01-07T13:04:26.752Z,9.78
2023-01-07T13:05:27.053Z,9.76
2023-01-07T13:06:27.371Z,9.79
2023-01-07T13:07:27.708Z,9.83
2023-01-07T13:08:27.935Z,9.84
2023-01-07T13:09:28.279Z,9.86
2023-01-07T13:10:28.612Z,9.83
2023-01-07T13:11:28.894Z,9.81
2023-01-07T13:12:40.991Z,9.81
2023-01-07T13:13:30.508Z,9.81
2023-01-07T13:14:29.739Z,9.84
2023-01-07T13:15:30.186Z,9.83
2023-01-07T13:16:30.473Z,9.81
2023-01-07T13:17:30.638Z,9.83
2023-01-07T13:18:30.921Z,9.81
2023-01-07T13:19:31.231Z,9.79
2023-01-07T13:20:31.544Z,9.81
2023-01-07T13:21:31.733Z,9.83
2023-01-07T13:22:32.047Z,9.86
2023-01-07T13:23:32.342Z,9.89
2023-01-07T13:24:56.281Z,9.89
2023-01-07T13:25:33.955Z,9.90